sensor_id;sensor_type;location;lat;lon;timestamp;pressure;altitude;pressure_sealevel;temperature;humidity
72038;BME280;59900;50.788;12.904;2024-03-25T00:00:32;95984.44;;;4.05;98.37
72038;BME280;59900;50.788;12.904;2024-03-25T00:02:57;95982.00;;;4.03;99.66
72038;BME280;59900;50.788;12.904;2024-03-25T00:05:23;95995.22;;;4.02;99.90
72038;BME280;59900;50.788;12.904;2024-03-25T00:07:51;95991.38;;;3.97;100.00
72038;BME280;59900;50.788;12.904;2024-03-25T00:10:17;95998.34;;;3.90;100.00
72038;BME280;59900;50.788;12.904;2024-03-25T00:12:42;96000.72;;;3.85;100.00
72038;BME280;59900;50.788;12.904;2024-03-25T00:15:08;96014.28;;;3.81;100.00
72038;BME280;59900;50.788;12.904;2024-03-25T00:17:33;96007.47;;;3.80;100.00
72038;BME280;59900;50.788;12.904;2024-03-25T00:19:59;96018.19;;;3.70;100.00
72038;BME280;59900;50.788;12.904;2024-03-25T00:22:24;96022.13;;;3.60;100.00
72038;BME280;59900;50.788;12.904;2024-03-25T00:24:52;96015.91;;;3.54;100.00
72038;BME280;59900;50.788;12.904;2024-03-25T00:27:18;96026.00;;;3.43;100.00
72038;BME280;59900;50.788;12.904;2024-03-25T00:29:43;96031.34;;;3.34;100.00
72038;BME280;59900;50.788;12.904;2024-03-25T00:32:09;96032.50;;;3.32;100.00
72038;BME280;59900;50.788;12.904;2024-03-25T00:34:35;96028.25;;;3.24;100.00
72038;BME280;59900;50.788;12.904;2024-03-25T00:37:00;96035.00;;;3.19;100.00
72038;BME280;59900;50.788;12.904;2024-03-25T00:39:27;96037.00;;;3.17;100.00
72038;BME280;59900;50.788;12.904;2024-03-25T00:41:53;96020.22;;;3.19;100.00
72038;BME280;59900;50.788;12.904;2024-03-25T00:44:18;96019.59;;;3.17;100.00
72038;BME280;59900;50.788;12.904;2024-03-25T00:46:44;96025.06;;;3.22;100.00
72038;BME280;59900;50.788;12.904;2024-03-25T00:49:10;96024.84;;;3.24;100.00
72038;BME280;59900;50.788;12.904;2024-03-25T00:51:36;96019.50;;;3.25;100.00
72038;BME280;59900;50.788;12.904;2024-03-25T00:54:01;96017.50;;;3.27;100.00
72038;BME280;59900;50.788;12.904;2024-03-25T00:56:27;96022.31;;;3.30;100.00
72038;BME280;59900;50.788;12.904;2024-03-25T00:58:52;96000.38;;;3.33;100.00
72038;BME280;59900;50.788;12.904;2024-03-25T01:01:17;96019.94;;;3.35;100.00
72038;BME280;59900;50.788;12.904;2024-03-25T01:03:43;96013.56;;;3.38;100.00
72038;BME280;59900;50.788;12.904;2024-03-25T01:06:08;96030.56;;;3.40;100.00
72038;BME280;59900;50.788;12.904;2024-03-25T01:08:33;96030.81;;;3.46;100.00
72038;BME280;59900;50.788;12.904;2024-03-25T01:10:59;96024.44;;;3.48;100.00
72038;BME280;59900;50.788;12.904;2024-03-25T01:13:25;96037.06;;;3.51;100.00
72038;BME280;59900;50.788;12.904;2024-03-25T01:15:51;96045.28;;;3.55;100.00
72038;BME280;59900;50.788;12.904;2024-03-25T01:18:17;96031.91;;;3.58;100.00
72038;BME280;59900;50.788;12.904;2024-03-25T01:20:42;96024.72;;;3.60;100.00
72038;BME280;59900;50.788;12.904;2024-03-25T01:23:07;96034.91;;;3.61;100.00
72038;BME280;59900;50.788;12.904;2024-03-25T01:25:32;96029.34;;;3.64;100.00
72038;BME280;59900;50.788;12.904;2024-03-25T01:27:58;96030.16;;;3.65;100.00
72038;BME280;59900;50.788;12.904;2024-03-25T01:30:23;96036.97;;;3.66;100.00
72038;BME280;59900;50.788;12.904;2024-03-25T01:32:48;96035.34;;;3.65;100.00
72038;BME280;59900;50.788;12.904;2024-03-25T01:35:14;96045.38;;;3.68;100.00
72038;BME280;59900;50.788;12.904;2024-03-25T01:37:41;96046.00;;;3.70;99.64
72038;BME280;59900;50.788;12.904;2024-03-25T01:40:07;96061.38;;;3.71;99.97
72038;BME280;59900;50.788;12.904;2024-03-25T01:42:32;96054.78;;;3.69;100.00
72038;BME280;59900;50.788;12.904;2024-03-25T01:44:57;96057.97;;;3.71;100.00
72038;BME280;59900;50.788;12.904;2024-03-25T01:47:23;96063.97;;;3.71;99.70
72038;BME280;59900;50.788;12.904;2024-03-25T01:49:48;96064.59;;;3.73;100.00
72038;BME280;59900;50.788;12.904;2024-03-25T01:52:15;96061.00;;;3.74;98.78
72038;BME280;59900;50.788;12.904;2024-03-25T01:54:40;96055.59;;;3.76;98.51
72038;BME280;59900;50.788;12.904;2024-03-25T01:57:06;96072.44;;;3.80;98.76
72038;BME280;59900;50.788;12.904;2024-03-25T01:59:32;96071.44;;;3.81;97.47
72038;BME280;59900;50.788;12.904;2024-03-25T02:01:57;96067.84;;;3.82;98.03
72038;BME280;59900;50.788;12.904;2024-03-25T02:04:22;96075.47;;;3.83;97.53
72038;BME280;59900;50.788;12.904;2024-03-25T02:06:48;96072.88;;;3.83;97.25
72038;BME280;59900;50.788;12.904;2024-03-25T02:09:15;96095.06;;;3.86;96.45
72038;BME280;59900;50.788;12.904;2024-03-25T02:11:40;96080.28;;;3.86;96.20
72038;BME280;59900;50.788;12.904;2024-03-25T02:14:07;96075.09;;;3.86;96.38
72038;BME280;59900;50.788;12.904;2024-03-25T02:16:32;96091.88;;;3.90;96.71
72038;BME280;59900;50.788;12.904;2024-03-25T02:18:57;96088.31;;;3.91;96.67
72038;BME280;59900;50.788;12.904;2024-03-25T02:21:22;96077.09;;;3.91;96.33
72038;BME280;59900;50.788;12.904;2024-03-25T02:23:48;96091.88;;;3.90;95.68
72038;BME280;59900;50.788;12.904;2024-03-25T02:26:16;96094.31;;;3.92;95.49
72038;BME280;59900;50.788;12.904;2024-03-25T02:28:41;96091.31;;;3.95;95.49
72038;BME280;59900;50.788;12.904;2024-03-25T02:31:06;96091.50;;;3.93;95.03
72038;BME280;59900;50.788;12.904;2024-03-25T02:33:31;96084.50;;;3.94;95.14
72038;BME280;59900;50.788;12.904;2024-03-25T02:35:57;96102.34;;;3.97;94.28
72038;BME280;59900;50.788;12.904;2024-03-25T02:38:22;96106.53;;;3.98;94.58
72038;BME280;59900;50.788;12.904;2024-03-25T02:40:49;96108.34;;;3.97;94.49
72038;BME280;59900;50.788;12.904;2024-03-25T02:43:14;96120.53;;;3.97;93.42
72038;BME280;59900;50.788;12.904;2024-03-25T02:45:39;96137.91;;;3.96;93.92
72038;BME280;59900;50.788;12.904;2024-03-25T02:48:05;96110.56;;;4.01;93.67
72038;BME280;59900;50.788;12.904;2024-03-25T02:50:30;96129.72;;;4.00;93.74
72038;BME280;59900;50.788;12.904;2024-03-25T02:52:55;96116.56;;;4.01;93.13
72038;BME280;59900;50.788;12.904;2024-03-25T02:55:21;96124.34;;;4.01;93.42
72038;BME280;59900;50.788;12.904;2024-03-25T02:57:46;96119.97;;;4.02;93.45
72038;BME280;59900;50.788;12.904;2024-03-25T03:00:11;96123.56;;;4.01;94.07
72038;BME280;59900;50.788;12.904;2024-03-25T03:02:38;96130.75;;;3.99;93.82
72038;BME280;59900;50.788;12.904;2024-03-25T03:05:03;96142.31;;;3.96;94.17
72038;BME280;59900;50.788;12.904;2024-03-25T03:07:29;96167.06;;;3.92;95.18
72038;BME280;59900;50.788;12.904;2024-03-25T03:09:54;96155.44;;;3.88;96.06
72038;BME280;59900;50.788;12.904;2024-03-25T03:12:19;96152.16;;;3.79;96.91
72038;BME280;59900;50.788;12.904;2024-03-25T03:14:45;96136.91;;;3.70;97.62
72038;BME280;59900;50.788;12.904;2024-03-25T03:17:10;96160.47;;;3.68;98.50
72038;BME280;59900;50.788;12.904;2024-03-25T03:19:35;96163.19;;;3.60;98.86
72038;BME280;59900;50.788;12.904;2024-03-25T03:22:00;96168.78;;;3.57;99.87
72038;BME280;59900;50.788;12.904;2024-03-25T03:24:26;96178.72;;;3.54;100.00
72038;BME280;59900;50.788;12.904;2024-03-25T03:26:51;96172.47;;;3.48;100.00
72038;BME280;59900;50.788;12.904;2024-03-25T03:29:16;96168.25;;;3.47;100.00
72038;BME280;59900;50.788;12.904;2024-03-25T03:31:42;96184.56;;;3.41;100.00
72038;BME280;59900;50.788;12.904;2024-03-25T03:34:08;96178.97;;;3.37;100.00
72038;BME280;59900;50.788;12.904;2024-03-25T03:36:33;96185.50;;;3.33;100.00
72038;BME280;59900;50.788;12.904;2024-03-25T03:38:58;96177.72;;;3.33;100.00
72038;BME280;59900;50.788;12.904;2024-03-25T03:41:23;96177.47;;;3.28;100.00
72038;BME280;59900;50.788;12.904;2024-03-25T03:43:49;96207.56;;;3.23;100.00
72038;BME280;59900;50.788;12.904;2024-03-25T03:46:14;96195.66;;;3.28;100.00
72038;BME280;59900;50.788;12.904;2024-03-25T03:48:39;96189.66;;;3.28;100.00
72038;BME280;59900;50.788;12.904;2024-03-25T03:51:05;96198.97;;;3.22;100.00
72038;BME280;59900;50.788;12.904;2024-03-25T03:53:32;96205.06;;;3.15;100.00
72038;BME280;59900;50.788;12.904;2024-03-25T03:56:00;96200.19;;;3.05;100.00
72038;BME280;59900;50.788;12.904;2024-03-25T03:58:27;96199.53;;;3.03;100.00
72038;BME280;59900;50.788;12.904;2024-03-25T04:00:52;96202.94;;;3.04;100.00
72038;BME280;59900;50.788;12.904;2024-03-25T04:03:17;96202.47;;;3.00;100.00
72038;BME280;59900;50.788;12.904;2024-03-25T04:05:43;96197.75;;;3.04;100.00
72038;BME280;59900;50.788;12.904;2024-03-25T04:08:08;96201.31;;;3.03;100.00
72038;BME280;59900;50.788;12.904;2024-03-25T04:10:34;96198.72;;;3.03;100.00
72038;BME280;59900;50.788;12.904;2024-03-25T04:13:00;96195.16;;;3.04;100.00
72038;BME280;59900;50.788;12.904;2024-03-25T04:15:26;96214.28;;;3.03;100.00
72038;BME280;59900;50.788;12.904;2024-03-25T04:17:52;96207.97;;;3.05;100.00
72038;BME280;59900;50.788;12.904;2024-03-25T04:20:17;96209.38;;;3.08;100.00
72038;BME280;59900;50.788;12.904;2024-03-25T04:22:43;96219.13;;;3.06;100.00
72038;BME280;59900;50.788;12.904;2024-03-25T04:25:09;96228.31;;;3.08;100.00
72038;BME280;59900;50.788;12.904;2024-03-25T04:27:39;96228.88;;;3.04;100.00
72038;BME280;59900;50.788;12.904;2024-03-25T04:30:06;96228.78;;;2.97;100.00
72038;BME280;59900;50.788;12.904;2024-03-25T04:32:32;96228.72;;;2.91;100.00
72038;BME280;59900;50.788;12.904;2024-03-25T04:34:57;96229.88;;;2.88;100.00
72038;BME280;59900;50.788;12.904;2024-03-25T04:37:23;96245.19;;;2.83;100.00
72038;BME280;59900;50.788;12.904;2024-03-25T04:39:48;96245.19;;;2.83;100.00
72038;BME280;59900;50.788;12.904;2024-03-25T04:42:13;96243.75;;;2.80;100.00
72038;BME280;59900;50.788;12.904;2024-03-25T04:44:38;96245.72;;;2.78;100.00
72038;BME280;59900;50.788;12.904;2024-03-25T04:47:04;96245.53;;;2.80;100.00
72038;BME280;59900;50.788;12.904;2024-03-25T04:49:29;96251.34;;;2.82;100.00
72038;BME280;59900;50.788;12.904;2024-03-25T04:51:55;96250.00;;;2.86;100.00
72038;BME280;59900;50.788;12.904;2024-03-25T04:54:21;96259.06;;;2.90;100.00
72038;BME280;59900;50.788;12.904;2024-03-25T04:56:46;96254.69;;;2.91;100.00
72038;BME280;59900;50.788;12.904;2024-03-25T04:59:12;96260.66;;;2.91;100.00
72038;BME280;59900;50.788;12.904;2024-03-25T05:01:37;96259.47;;;2.94;100.00
72038;BME280;59900;50.788;12.904;2024-03-25T05:04:03;96251.19;;;2.98;100.00
72038;BME280;59900;50.788;12.904;2024-03-25T05:06:28;96261.34;;;3.00;100.00
72038;BME280;59900;50.788;12.904;2024-03-25T05:08:53;96267.34;;;3.00;100.00
72038;BME280;59900;50.788;12.904;2024-03-25T05:11:18;96279.16;;;3.03;100.00
72038;BME280;59900;50.788;12.904;2024-03-25T05:13:44;96280.97;;;3.02;100.00
72038;BME280;59900;50.788;12.904;2024-03-25T05:16:09;96279.38;;;3.01;100.00
72038;BME280;59900;50.788;12.904;2024-03-25T05:18:34;96284.56;;;3.01;100.00
72038;BME280;59900;50.788;12.904;2024-03-25T05:20:59;96279.97;;;3.03;100.00
72038;BME280;59900;50.788;12.904;2024-03-25T05:23:25;96283.22;;;3.05;100.00
72038;BME280;59900;50.788;12.904;2024-03-25T05:25:50;96279.81;;;3.05;100.00
72038;BME280;59900;50.788;12.904;2024-03-25T05:28:15;96300.38;;;3.06;100.00
72038;BME280;59900;50.788;12.904;2024-03-25T05:30:40;96302.81;;;3.08;100.00
72038;BME280;59900;50.788;12.904;2024-03-25T05:33:05;96298.03;;;3.11;100.00
72038;BME280;59900;50.788;12.904;2024-03-25T05:35:31;96294.31;;;3.14;100.00
72038;BME280;59900;50.788;12.904;2024-03-25T05:37:58;96302.09;;;3.14;100.00
72038;BME280;59900;50.788;12.904;2024-03-25T05:40:24;96302.88;;;3.14;100.00
72038;BME280;59900;50.788;12.904;2024-03-25T05:42:49;96311.31;;;3.16;100.00
72038;BME280;59900;50.788;12.904;2024-03-25T05:45:14;96312.53;;;3.20;100.00
72038;BME280;59900;50.788;12.904;2024-03-25T05:47:40;96314.72;;;3.17;100.00
72038;BME280;59900;50.788;12.904;2024-03-25T05:50:06;96323.22;;;3.11;100.00
72038;BME280;59900;50.788;12.904;2024-03-25T05:52:33;96315.94;;;3.06;100.00
72038;BME280;59900;50.788;12.904;2024-03-25T05:54:58;96325.88;;;3.03;100.00
72038;BME280;59900;50.788;12.904;2024-03-25T05:57:23;96329.63;;;3.00;100.00
72038;BME280;59900;50.788;12.904;2024-03-25T05:59:49;96325.09;;;3.02;100.00
72038;BME280;59900;50.788;12.904;2024-03-25T06:02:14;96330.66;;;2.99;100.00
72038;BME280;59900;50.788;12.904;2024-03-25T06:04:39;96324.63;;;2.99;100.00
72038;BME280;59900;50.788;12.904;2024-03-25T06:07:04;96328.41;;;2.96;100.00
72038;BME280;59900;50.788;12.904;2024-03-25T06:09:30;96332.06;;;3.02;100.00
72038;BME280;59900;50.788;12.904;2024-03-25T06:11:55;96332.44;;;3.13;100.00
72038;BME280;59900;50.788;12.904;2024-03-25T06:14:21;96339.56;;;3.11;100.00
72038;BME280;59900;50.788;12.904;2024-03-25T06:16:46;96348.38;;;3.10;100.00
72038;BME280;59900;50.788;12.904;2024-03-25T06:19:11;96358.63;;;3.04;100.00
72038;BME280;59900;50.788;12.904;2024-03-25T06:21:37;96358.72;;;2.96;100.00
72038;BME280;59900;50.788;12.904;2024-03-25T06:24:03;96360.50;;;2.95;100.00
72038;BME280;59900;50.788;12.904;2024-03-25T06:26:28;96358.28;;;2.92;100.00
72038;BME280;59900;50.788;12.904;2024-03-25T06:28:53;96360.25;;;2.90;100.00
72038;BME280;59900;50.788;12.904;2024-03-25T06:31:19;96370.63;;;2.90;100.00
72038;BME280;59900;50.788;12.904;2024-03-25T06:34:03;96374.47;;;2.94;100.00
72038;BME280;59900;50.788;12.904;2024-03-25T06:36:45;96377.50;;;2.98;100.00
72038;BME280;59900;50.788;12.904;2024-03-25T06:39:10;96384.13;;;3.00;100.00
72038;BME280;59900;50.788;12.904;2024-03-25T06:41:36;96378.59;;;3.03;100.00
72038;BME280;59900;50.788;12.904;2024-03-25T06:44:01;96387.44;;;3.09;100.00
72038;BME280;59900;50.788;12.904;2024-03-25T06:46:27;96391.31;;;3.13;100.00
72038;BME280;59900;50.788;12.904;2024-03-25T06:48:52;96385.94;;;3.14;100.00
72038;BME280;59900;50.788;12.904;2024-03-25T06:51:18;96397.44;;;3.20;100.00
72038;BME280;59900;50.788;12.904;2024-03-25T06:53:43;96392.66;;;3.23;100.00
72038;BME280;59900;50.788;12.904;2024-03-25T06:56:08;96385.94;;;3.29;100.00
72038;BME280;59900;50.788;12.904;2024-03-25T06:58:34;96390.78;;;3.32;100.00
72038;BME280;59900;50.788;12.904;2024-03-25T07:01:04;96400.47;;;3.38;100.00
72038;BME280;59900;50.788;12.904;2024-03-25T07:03:30;96398.50;;;3.40;100.00
72038;BME280;59900;50.788;12.904;2024-03-25T07:05:56;96389.81;;;3.48;100.00
72038;BME280;59900;50.788;12.904;2024-03-25T07:08:22;96409.41;;;3.50;100.00
72038;BME280;59900;50.788;12.904;2024-03-25T07:10:47;96404.31;;;3.57;100.00
72038;BME280;59900;50.788;12.904;2024-03-25T07:13:12;96413.63;;;3.66;100.00
72038;BME280;59900;50.788;12.904;2024-03-25T07:15:38;96412.38;;;3.62;100.00
72038;BME280;59900;50.788;12.904;2024-03-25T07:18:04;96413.19;;;3.62;100.00
72038;BME280;59900;50.788;12.904;2024-03-25T07:20:30;96423.13;;;3.59;100.00
72038;BME280;59900;50.788;12.904;2024-03-25T07:22:56;96420.00;;;3.63;100.00
72038;BME280;59900;50.788;12.904;2024-03-25T07:25:22;96414.59;;;3.65;100.00
72038;BME280;59900;50.788;12.904;2024-03-25T07:27:47;96420.00;;;3.63;100.00
72038;BME280;59900;50.788;12.904;2024-03-25T07:30:13;96420.88;;;3.70;100.00
72038;BME280;59900;50.788;12.904;2024-03-25T07:32:39;96416.31;;;3.72;100.00
72038;BME280;59900;50.788;12.904;2024-03-25T07:35:04;96436.56;;;3.77;100.00
72038;BME280;59900;50.788;12.904;2024-03-25T07:37:30;96421.78;;;3.77;100.00
72038;BME280;59900;50.788;12.904;2024-03-25T07:39:56;96433.50;;;3.73;100.00
72038;BME280;59900;50.788;12.904;2024-03-25T07:42:21;96432.53;;;3.74;100.00
72038;BME280;59900;50.788;12.904;2024-03-25T07:44:46;96424.19;;;3.79;100.00
72038;BME280;59900;50.788;12.904;2024-03-25T07:47:11;96422.84;;;3.83;100.00
72038;BME280;59900;50.788;12.904;2024-03-25T07:49:37;96436.91;;;3.88;100.00
72038;BME280;59900;50.788;12.904;2024-03-25T07:52:03;96428.00;;;3.97;100.00
72038;BME280;59900;50.788;12.904;2024-03-25T07:54:28;96429.69;;;4.05;100.00
72038;BME280;59900;50.788;12.904;2024-03-25T07:56:54;96448.34;;;4.09;100.00
72038;BME280;59900;50.788;12.904;2024-03-25T07:59:19;96445.94;;;4.07;100.00
72038;BME280;59900;50.788;12.904;2024-03-25T08:01:44;96431.66;;;4.18;100.00
72038;BME280;59900;50.788;12.904;2024-03-25T08:04:09;96430.75;;;4.25;100.00
72038;BME280;59900;50.788;12.904;2024-03-25T08:06:35;96451.91;;;4.22;99.33
72038;BME280;59900;50.788;12.904;2024-03-25T08:09:00;96442.94;;;4.25;99.22
72038;BME280;59900;50.788;12.904;2024-03-25T08:11:25;96443.03;;;4.31;99.24
72038;BME280;59900;50.788;12.904;2024-03-25T08:13:51;96456.56;;;4.27;98.08
72038;BME280;59900;50.788;12.904;2024-03-25T08:16:17;96451.91;;;4.22;98.29
72038;BME280;59900;50.788;12.904;2024-03-25T08:18:42;96468.78;;;4.12;97.39
72038;BME280;59900;50.788;12.904;2024-03-25T08:21:07;96477.59;;;4.11;97.59
72038;BME280;59900;50.788;12.904;2024-03-25T08:23:32;96460.00;;;4.13;97.95
72038;BME280;59900;50.788;12.904;2024-03-25T08:25:58;96453.81;;;4.14;96.98
72038;BME280;59900;50.788;12.904;2024-03-25T08:28:23;96459.44;;;4.17;97.03
72038;BME280;59900;50.788;12.904;2024-03-25T08:30:49;96465.09;;;4.21;97.70
72038;BME280;59900;50.788;12.904;2024-03-25T08:33:15;96461.69;;;4.20;96.45
72038;BME280;59900;50.788;12.904;2024-03-25T08:35:40;96469.75;;;4.25;97.80
72038;BME280;59900;50.788;12.904;2024-03-25T08:38:05;96477.28;;;4.20;97.64
72038;BME280;59900;50.788;12.904;2024-03-25T08:40:31;96500.44;;;4.15;98.70
72038;BME280;59900;50.788;12.904;2024-03-25T08:42:56;96483.78;;;3.95;100.00
72038;BME280;59900;50.788;12.904;2024-03-25T08:45:21;96490.75;;;3.80;100.00
72038;BME280;59900;50.788;12.904;2024-03-25T08:47:47;96481.97;;;3.66;100.00
72038;BME280;59900;50.788;12.904;2024-03-25T08:50:12;96494.59;;;3.55;100.00
72038;BME280;59900;50.788;12.904;2024-03-25T08:52:37;96490.38;;;3.54;100.00
72038;BME280;59900;50.788;12.904;2024-03-25T08:55:05;96502.75;;;3.52;100.00
72038;BME280;59900;50.788;12.904;2024-03-25T08:57:31;96494.06;;;3.59;100.00
72038;BME280;59900;50.788;12.904;2024-03-25T08:59:56;96487.19;;;3.66;100.00
72038;BME280;59900;50.788;12.904;2024-03-25T09:02:21;96493.72;;;3.62;100.00
72038;BME280;59900;50.788;12.904;2024-03-25T09:04:46;96494.44;;;3.71;100.00
72038;BME280;59900;50.788;12.904;2024-03-25T09:07:14;96493.09;;;3.75;100.00
72038;BME280;59900;50.788;12.904;2024-03-25T09:09:39;96500.34;;;3.79;100.00
72038;BME280;59900;50.788;12.904;2024-03-25T09:12:23;96497.22;;;3.84;100.00
72038;BME280;59900;50.788;12.904;2024-03-25T09:14:48;96496.50;;;3.90;100.00
72038;BME280;59900;50.788;12.904;2024-03-25T09:17:13;96502.06;;;4.02;100.00
72038;BME280;59900;50.788;12.904;2024-03-25T09:19:39;96499.16;;;4.11;100.00
72038;BME280;59900;50.788;12.904;2024-03-25T09:22:04;96501.13;;;4.24;100.00
72038;BME280;59900;50.788;12.904;2024-03-25T09:24:29;96528.84;;;4.31;100.00
72038;BME280;59900;50.788;12.904;2024-03-25T09:26:54;96506.56;;;4.43;98.17
72038;BME280;59900;50.788;12.904;2024-03-25T09:29:20;96512.84;;;4.49;97.92
72038;BME280;59900;50.788;12.904;2024-03-25T09:31:45;96505.38;;;4.61;99.10
72038;BME280;59900;50.788;12.904;2024-03-25T09:34:10;96499.81;;;4.64;97.15
72038;BME280;59900;50.788;12.904;2024-03-25T09:36:35;96514.41;;;4.65;93.75
72038;BME280;59900;50.788;12.904;2024-03-25T09:39:01;96517.81;;;4.65;92.50
72038;BME280;59900;50.788;12.904;2024-03-25T09:41:28;96516.56;;;4.61;92.19
72038;BME280;59900;50.788;12.904;2024-03-25T09:43:54;96527.91;;;4.53;92.01
72038;BME280;59900;50.788;12.904;2024-03-25T09:46:21;96537.56;;;4.60;93.79
72038;BME280;59900;50.788;12.904;2024-03-25T09:48:47;96529.94;;;4.58;93.09
72038;BME280;59900;50.788;12.904;2024-03-25T09:51:13;96530.03;;;4.65;92.79
72038;BME280;59900;50.788;12.904;2024-03-25T09:53:38;96526.56;;;4.58;90.00
72038;BME280;59900;50.788;12.904;2024-03-25T09:56:04;96532.25;;;4.68;90.24
72038;BME280;59900;50.788;12.904;2024-03-25T09:58:30;96524.28;;;4.69;90.41
72038;BME280;59900;50.788;12.904;2024-03-25T10:00:57;96523.09;;;4.72;91.17
72038;BME280;59900;50.788;12.904;2024-03-25T10:03:23;96530.78;;;4.80;92.06
72038;BME280;59900;50.788;12.904;2024-03-25T10:05:48;96517.84;;;4.86;92.25
72038;BME280;59900;50.788;12.904;2024-03-25T10:08:20;96526.97;;;4.97;92.20
72038;BME280;59900;50.788;12.904;2024-03-25T10:10:45;96527.59;;;4.99;90.62
72038;BME280;59900;50.788;12.904;2024-03-25T10:13:10;96525.84;;;5.06;91.49
72038;BME280;59900;50.788;12.904;2024-03-25T10:15:35;96525.25;;;5.04;90.62
72038;BME280;59900;50.788;12.904;2024-03-25T10:18:01;96526.72;;;5.13;90.58
72038;BME280;59900;50.788;12.904;2024-03-25T10:20:26;96526.16;;;5.18;90.73
72038;BME280;59900;50.788;12.904;2024-03-25T10:22:52;96530.81;;;5.22;90.84
72038;BME280;59900;50.788;12.904;2024-03-25T10:25:30;96530.81;;;5.22;91.30
72038;BME280;59900;50.788;12.904;2024-03-25T10:28:00;96521.38;;;5.21;91.75
72038;BME280;59900;50.788;12.904;2024-03-25T10:30:26;96518.56;;;5.23;89.79
72038;BME280;59900;50.788;12.904;2024-03-25T10:33:01;96525.97;;;5.19;89.97
72038;BME280;59900;50.788;12.904;2024-03-25T10:35:27;96530.06;;;5.28;89.88
72038;BME280;59900;50.788;12.904;2024-03-25T10:37:55;96521.06;;;5.31;88.91
72038;BME280;59900;50.788;12.904;2024-03-25T10:40:24;96530.75;;;5.37;88.73
72038;BME280;59900;50.788;12.904;2024-03-25T10:42:55;96524.97;;;5.41;87.76
72038;BME280;59900;50.788;12.904;2024-03-25T10:45:23;96524.78;;;5.43;86.47
72038;BME280;59900;50.788;12.904;2024-03-25T10:47:48;96538.78;;;5.42;84.21
72038;BME280;59900;50.788;12.904;2024-03-25T10:50:16;96536.19;;;5.42;84.21
72038;BME280;59900;50.788;12.904;2024-03-25T10:52:45;96528.81;;;5.45;84.74
72038;BME280;59900;50.788;12.904;2024-03-25T10:55:10;96524.44;;;5.52;84.74
72038;BME280;59900;50.788;12.904;2024-03-25T10:57:36;96531.06;;;5.55;83.66
72038;BME280;59900;50.788;12.904;2024-03-25T11:00:02;96535.72;;;5.59;83.52
72038;BME280;59900;50.788;12.904;2024-03-25T11:02:30;96537.16;;;5.62;82.73
72038;BME280;59900;50.788;12.904;2024-03-25T11:04:55;96535.53;;;5.61;81.04
72038;BME280;59900;50.788;12.904;2024-03-25T11:07:30;96532.91;;;5.61;79.27
72038;BME280;59900;50.788;12.904;2024-03-25T11:10:03;96530.56;;;5.66;80.46
72038;BME280;59900;50.788;12.904;2024-03-25T11:12:34;96525.66;;;5.78;80.31
72038;BME280;59900;50.788;12.904;2024-03-25T11:15:01;96528.72;;;5.88;78.79
72038;BME280;59900;50.788;12.904;2024-03-25T11:17:26;96516.16;;;5.98;78.76
72038;BME280;59900;50.788;12.904;2024-03-25T11:19:51;96516.81;;;6.06;78.21
72038;BME280;59900;50.788;12.904;2024-03-25T11:22:24;96508.81;;;6.14;77.42
72038;BME280;59900;50.788;12.904;2024-03-25T11:24:50;96512.25;;;6.15;77.40
72038;BME280;59900;50.788;12.904;2024-03-25T11:27:22;96507.63;;;6.10;76.01
72038;BME280;59900;50.788;12.904;2024-03-25T11:29:48;96514.25;;;6.13;76.53
72038;BME280;59900;50.788;12.904;2024-03-25T11:32:14;96515.63;;;6.09;75.10
72038;BME280;59900;50.788;12.904;2024-03-25T11:34:50;96512.41;;;6.07;76.62
72038;BME280;59900;50.788;12.904;2024-03-25T11:37:15;96506.56;;;6.05;77.58
72038;BME280;59900;50.788;12.904;2024-03-25T11:39:40;96512.38;;;6.00;75.81
72038;BME280;59900;50.788;12.904;2024-03-25T11:42:08;96514.56;;;5.97;74.75
72038;BME280;59900;50.788;12.904;2024-03-25T11:44:36;96513.34;;;5.93;76.25
72038;BME280;59900;50.788;12.904;2024-03-25T11:47:02;96512.03;;;5.82;75.57
72038;BME280;59900;50.788;12.904;2024-03-25T11:49:28;96510.44;;;5.81;75.33
72038;BME280;59900;50.788;12.904;2024-03-25T11:51:53;96506.00;;;5.82;75.96
72038;BME280;59900;50.788;12.904;2024-03-25T11:54:18;96520.84;;;5.81;73.70
72038;BME280;59900;50.788;12.904;2024-03-25T11:56:44;96525.66;;;5.78;73.48
72038;BME280;59900;50.788;12.904;2024-03-25T11:59:09;96512.84;;;5.83;73.98
72038;BME280;59900;50.788;12.904;2024-03-25T12:01:36;96517.50;;;5.87;74.61
72038;BME280;59900;50.788;12.904;2024-03-25T12:04:11;96520.97;;;5.94;74.45
72038;BME280;59900;50.788;12.904;2024-03-25T12:06:36;96519.16;;;5.95;73.39
72038;BME280;59900;50.788;12.904;2024-03-25T12:09:01;96513.78;;;6.03;72.67
72038;BME280;59900;50.788;12.904;2024-03-25T12:11:45;96505.78;;;6.11;72.06
72038;BME280;59900;50.788;12.904;2024-03-25T12:14:10;96511.69;;;6.26;71.70
72038;BME280;59900;50.788;12.904;2024-03-25T12:16:36;96507.31;;;6.33;71.89
72038;BME280;59900;50.788;12.904;2024-03-25T12:19:01;96504.59;;;6.54;71.75
72038;BME280;59900;50.788;12.904;2024-03-25T12:21:26;96502.44;;;6.71;71.18
72038;BME280;59900;50.788;12.904;2024-03-25T12:23:53;96493.06;;;6.90;69.73
72038;BME280;59900;50.788;12.904;2024-03-25T12:26:19;96511.75;;;7.06;69.17
72038;BME280;59900;50.788;12.904;2024-03-25T12:28:45;96491.06;;;7.18;69.14
72038;BME280;59900;50.788;12.904;2024-03-25T12:31:10;96496.28;;;7.18;67.85
72038;BME280;59900;50.788;12.904;2024-03-25T12:33:45;96487.47;;;7.19;67.24
72038;BME280;59900;50.788;12.904;2024-03-25T12:36:14;96494.47;;;7.12;67.62
72038;BME280;59900;50.788;12.904;2024-03-25T12:38:39;96491.66;;;7.13;68.66
72038;BME280;59900;50.788;12.904;2024-03-25T12:43:42;96490.84;;;7.00;68.36
72038;BME280;59900;50.788;12.904;2024-03-25T12:46:07;96492.28;;;7.15;70.77
72038;BME280;59900;50.788;12.904;2024-03-25T12:48:34;96494.06;;;7.15;68.20
72038;BME280;59900;50.788;12.904;2024-03-25T12:50:59;96489.66;;;7.15;68.44